createdAt,value
2018-06-18T07:16:09.181Z,19.00
2018-06-18T07:18:37.332Z,19.20
2018-06-18T07:21:05.491Z,19.30
2018-06-18T07:23:33.631Z,19.30
2018-06-18T07:26:01.808Z,19.30
2018-06-18T07:28:29.910Z,19.40
2018-06-18T07:30:58.083Z,19.60
2018-06-18T07:33:26.216Z,19.80
2018-06-18T07:35:54.360Z,19.80
2018-06-18T07:38:22.821Z,19.80
2018-06-18T07:40:50.993Z,19.80
2018-06-18T07:43:19.129Z,19.80
2018-06-18T07:45:47.272Z,19.80
2018-06-18T07:48:15.400Z,20.00
2018-06-18T07:53:11.456Z,20.30
2018-06-18T07:55:39.608Z,20.30
2018-06-18T07:58:07.736Z,20.40
2018-06-18T08:00:35.868Z,20.60
2018-06-18T08:05:31.924Z,20.90
2018-06-18T08:08:00.107Z,21.10
2018-06-18T08:10:28.205Z,20.90
2018-06-18T08:12:56.343Z,20.80
2018-06-18T08:15:24.472Z,21.00
2018-06-18T08:17:52.637Z,20.90
2018-06-18T08:20:20.771Z,20.90
2018-06-18T08:22:49.760Z,20.90
2018-06-18T08:25:17.908Z,21.10
2018-06-18T08:27:46.081Z,21.20
2018-06-18T08:30:14.204Z,21.20
2018-06-18T08:32:42.344Z,21.20
2018-06-18T08:37:38.400Z,21.50
2018-06-18T08:40:06.612Z,21.50
2018-06-18T08:42:34.743Z,21.60
2018-06-18T08:45:02.890Z,21.50
2018-06-18T08:47:31.018Z,21.50
2018-06-18T08:50:04.717Z,21.60
2018-06-18T08:52:38.477Z,21.70
2018-06-18T08:55:12.000Z,21.80
2018-06-18T09:01:22.964Z,21.80
2018-06-18T09:03:58.340Z,21.70
2018-06-18T09:06:26.491Z,21.90
2018-06-18T09:08:56.220Z,22.00
2018-06-18T09:13:52.772Z,22.00
2018-06-18T09:18:48.858Z,22.00
2018-06-18T09:21:16.999Z,22.30
2018-06-18T09:23:45.196Z,22.50
2018-06-18T09:26:13.324Z,22.70
2018-06-18T09:28:41.437Z,22.70
2018-06-18T09:31:09.617Z,22.70
2018-06-18T09:33:37.793Z,22.70
2018-06-18T09:36:05.929Z,22.70
2018-06-18T09:38:34.072Z,22.70
2018-06-18T09:41:02.318Z,22.60
2018-06-18T09:43:30.452Z,22.60
2018-06-18T09:48:31.813Z,22.70
2018-06-18T09:51:05.568Z,22.80
2018-06-18T09:53:39.272Z,23.00
2018-06-18T09:56:12.958Z,22.90
2018-06-18T09:58:47.452Z,23.00
2018-06-18T10:01:20.889Z,22.80
2018-06-18T10:03:49.204Z,22.80
2018-06-18T10:06:17.581Z,22.50
2018-06-18T10:08:46.341Z,22.40
2018-06-18T10:11:14.484Z,22.20
2018-06-18T10:16:10.527Z,21.90
2018-06-18T10:21:06.784Z,22.00
2018-06-18T10:23:34.942Z,22.20
2018-06-18T10:28:30.987Z,22.70
2018-06-18T10:33:32.476Z,22.90
2018-06-18T10:36:06.137Z,23.10
2018-06-18T10:38:40.365Z,23.30
2018-06-18T10:41:14.039Z,23.20
2018-06-18T10:43:42.180Z,23.20
2018-06-18T10:46:10.324Z,23.00
2018-06-18T10:48:38.802Z,23.10
2018-06-18T10:51:06.964Z,23.00
2018-06-18T10:53:35.100Z,23.10
2018-06-18T10:56:03.241Z,23.40
2018-06-18T10:58:31.381Z,23.60
2018-06-18T11:01:04.668Z,23.80
2018-06-18T11:03:32.820Z,23.80
2018-06-18T11:06:06.453Z,23.80
2018-06-18T11:08:35.528Z,23.80
2018-06-18T11:11:03.666Z,23.70
2018-06-18T11:13:31.807Z,23.50
2018-06-18T11:15:59.975Z,23.60
2018-06-18T11:18:33.504Z,23.60
2018-06-18T11:21:06.881Z,23.40
2018-06-18T11:23:40.288Z,23.40
2018-06-18T11:28:42.699Z,23.50
2018-06-18T11:31:10.877Z,23.60
2018-06-18T11:33:39.131Z,23.70
2018-06-18T11:36:07.278Z,23.60
2018-06-18T11:38:35.428Z,23.50
2018-06-18T11:41:03.602Z,23.80
2018-06-18T11:43:31.834Z,23.80
2018-06-18T11:45:59.924Z,23.60
2018-06-18T11:50:55.984Z,23.80
2018-06-18T11:53:24.120Z,23.90
2018-06-18T11:58:26.179Z,24.10
2018-06-18T12:02:01.643Z,24.40
2018-06-18T12:04:35.302Z,24.50
2018-06-18T12:07:09.162Z,24.70
2018-06-18T12:09:39.524Z,24.40
2018-06-18T12:12:07.648Z,24.50
2018-06-18T12:14:35.796Z,24.20
2018-06-18T12:17:04.677Z,23.90
2018-06-18T12:19:32.825Z,23.80
2018-06-18T12:24:28.887Z,24.00
2018-06-18T12:26:57.057Z,24.30
2018-06-18T12:29:25.210Z,24.40
2018-06-18T12:34:21.264Z,24.70
2018-06-18T12:36:49.401Z,24.60
2018-06-18T12:39:17.556Z,24.50
2018-06-18T12:41:49.416Z,24.40
2018-06-18T12:44:18.459Z,24.30
2018-06-18T12:49:27.859Z,24.00
2018-06-18T12:52:01.505Z,24.10
2018-06-18T12:59:33.953Z,23.90
2018-06-18T13:02:06.780Z,23.60
2018-06-18T13:04:38.041Z,23.50
2018-06-18T13:07:06.688Z,23.60
2018-06-18T13:09:34.836Z,23.50
2018-06-18T13:12:02.973Z,23.80
2018-06-18T13:14:31.124Z,23.90
2018-06-18T13:16:59.276Z,24.20
2018-06-18T13:19:27.424Z,24.30
2018-06-18T13:21:55.617Z,24.20
2018-06-18T13:24:23.756Z,24.20
2018-06-18T13:29:19.825Z,24.40
2018-06-18T13:31:47.963Z,24.40
2018-06-18T13:34:16.108Z,24.30
2018-06-18T13:36:44.241Z,24.10
2018-06-18T13:39:17.988Z,24.00
2018-06-18T13:41:51.344Z,23.80
2018-06-18T13:44:25.078Z,23.70
2018-06-18T13:46:58.776Z,23.70
2018-06-18T13:49:32.428Z,23.50
2018-06-18T13:52:00.568Z,23.50
2018-06-18T13:54:29.744Z,23.50
2018-06-18T13:56:57.980Z,23.70
2018-06-18T13:59:26.132Z,23.80
2018-06-18T14:01:54.264Z,26.20
2018-06-18T14:04:22.400Z,23.70
2018-06-18T14:06:50.561Z,23.70
2018-06-18T14:09:18.696Z,23.60
2018-06-18T14:11:46.841Z,23.50
2018-06-18T14:14:14.985Z,23.40
2018-06-18T14:16:43.124Z,23.50
2018-06-18T14:19:16.633Z,23.70
2018-06-18T14:21:44.789Z,23.70
2018-06-18T14:24:12.924Z,23.80
2018-06-18T14:29:13.340Z,23.80
2018-06-18T14:31:59.872Z,23.90
2018-06-18T14:34:33.400Z,23.90
2018-06-18T14:38:10.680Z,24.00
2018-06-18T14:40:38.836Z,24.00
2018-06-18T14:43:06.993Z,24.00
2018-06-18T14:45:35.142Z,24.10
2018-06-18T14:48:03.268Z,24.10
2018-06-18T14:52:59.564Z,24.10
2018-06-18T14:55:27.775Z,24.10
2018-06-18T14:57:57.001Z,24.00
2018-06-18T15:02:58.364Z,24.00
2018-06-18T15:05:31.878Z,24.10
2018-06-18T15:08:00.014Z,24.20
2018-06-18T15:10:33.571Z,24.40
2018-06-18T15:13:02.000Z,24.40
2018-06-18T15:15:35.629Z,24.40
2018-06-18T15:18:03.747Z,24.30
2018-06-18T15:20:31.914Z,24.10
2018-06-18T15:23:02.117Z,23.90
2018-06-18T15:25:42.244Z,23.90
2018-06-18T15:30:39.040Z,23.80
2018-06-18T15:33:07.196Z,23.90
2018-06-18T15:35:35.441Z,23.90
2018-06-18T15:38:03.605Z,24.00
2018-06-18T15:40:31.832Z,24.00
2018-06-18T15:43:00.076Z,23.90
2018-06-18T15:45:28.220Z,23.90
2018-06-18T15:47:56.368Z,23.90
2018-06-18T15:50:24.527Z,23.70
2018-06-18T15:55:20.685Z,23.40
2018-06-18T15:57:48.829Z,23.30
2018-06-18T16:02:44.945Z,23.20
2018-06-18T16:05:13.364Z,23.40
2018-06-18T16:07:42.225Z,23.40
2018-06-18T16:10:10.373Z,23.50
2018-06-18T16:12:38.623Z,23.60
2018-06-18T16:15:06.928Z,23.70
2018-06-18T16:17:35.084Z,23.60
2018-06-18T16:20:03.225Z,23.70
2018-06-18T16:24:59.532Z,23.70
2018-06-18T16:27:27.620Z,23.80
2018-06-18T16:29:55.764Z,23.90
2018-06-18T16:32:23.928Z,23.90
2018-06-18T16:34:52.264Z,24.00
2018-06-18T16:39:48.451Z,23.70
2018-06-18T16:42:16.599Z,23.70
2018-06-18T16:44:44.801Z,23.80
2018-06-18T16:47:12.940Z,24.00
2018-06-18T16:52:09.322Z,23.80
2018-06-18T16:54:37.490Z,23.50
2018-06-18T16:57:05.632Z,23.30
2018-06-18T17:02:02.387Z,23.00
2018-06-18T17:04:30.618Z,22.80
2018-06-18T17:06:58.740Z,22.60
2018-06-18T17:11:54.959Z,22.20
2018-06-18T17:14:23.125Z,22.00
2018-06-18T17:16:51.284Z,21.90
2018-06-18T17:19:19.436Z,21.90
2018-06-18T17:21:47.597Z,22.00
2018-06-18T17:26:44.448Z,22.00
2018-06-18T17:31:40.582Z,21.90
2018-06-18T17:34:08.711Z,21.90
2018-06-18T17:36:36.874Z,21.80
2018-06-18T17:39:08.140Z,21.70
2018-06-18T17:41:36.286Z,21.70
2018-06-18T17:44:04.446Z,21.60
2018-06-18T17:49:00.522Z,21.40
2018-06-18T17:51:28.664Z,21.30
2018-06-18T17:53:56.874Z,21.20
2018-06-18T17:58:52.884Z,21.00
2018-06-18T18:01:21.078Z,20.90
2018-06-18T18:03:49.180Z,20.90
2018-06-18T18:06:17.328Z,20.90
2018-06-18T18:08:45.877Z,20.80
2018-06-18T18:11:14.064Z,20.80
2018-06-18T18:13:42.237Z,20.80
2018-06-18T18:16:10.337Z,20.70
2018-06-18T18:18:38.477Z,20.70
2018-06-18T18:23:34.817Z,20.60
2018-06-18T18:26:02.982Z,20.50
2018-06-18T18:28:31.272Z,20.50
2018-06-18T18:30:59.425Z,20.40
2018-06-18T18:33:27.586Z,20.40
2018-06-18T18:35:55.779Z,20.30
2018-06-18T18:38:23.920Z,20.30
2018-06-18T18:40:52.100Z,20.20
2018-06-18T18:43:20.256Z,20.10
2018-06-18T18:45:48.418Z,20.00
2018-06-18T18:48:16.605Z,20.00
2018-06-18T18:50:44.760Z,19.90
2018-06-18T18:56:01.999Z,19.70
2018-06-18T18:58:56.364Z,19.60
2018-06-18T19:01:24.529Z,19.50
2018-06-18T19:03:54.630Z,19.40
2018-06-18T19:06:22.801Z,19.20
2018-06-18T19:08:50.949Z,19.10
2018-06-18T19:11:19.115Z,19.10
2018-06-18T19:13:47.285Z,19.00
2018-06-18T19:16:16.148Z,18.90
2018-06-18T19:18:48.388Z,18.80
2018-06-18T19:21:16.551Z,18.70
2018-06-18T19:23:44.700Z,18.60
2018-06-18T19:26:12.865Z,18.50
2018-06-18T19:28:41.004Z,18.40
2018-06-18T19:31:11.659Z,18.30
2018-06-18T19:36:10.334Z,18.10
2018-06-18T19:38:38.644Z,18.00
2018-06-18T19:43:34.752Z,17.80
2018-06-18T19:46:03.682Z,17.80
2018-06-18T19:51:05.336Z,17.70
2018-06-18T19:53:33.483Z,17.60
2018-06-18T19:56:01.670Z,17.50
2018-06-18T19:58:29.820Z,17.40
2018-06-18T20:01:01.104Z,17.30
2018-06-18T20:03:29.248Z,17.20
2018-06-18T20:05:57.544Z,17.00
2018-06-18T20:08:27.775Z,16.90
2018-06-18T20:10:55.941Z,16.80
2018-06-18T20:13:24.130Z,16.60
2018-06-18T20:15:52.310Z,16.60
2018-06-18T20:18:20.468Z,16.40
2018-06-18T20:20:48.616Z,16.40
2018-06-18T20:23:19.825Z,16.30
2018-06-18T20:28:18.423Z,16.20
2018-06-18T20:33:16.404Z,16.10
2018-06-18T20:38:18.206Z,16.00
2018-06-18T20:40:46.357Z,16.00
2018-06-18T20:45:42.504Z,15.90
2018-06-18T20:50:38.591Z,15.80
2018-06-18T20:55:34.622Z,15.70
2018-06-18T20:58:02.772Z,15.70
2018-06-18T21:02:59.150Z,15.60
2018-06-18T21:05:27.305Z,15.60
2018-06-18T21:07:55.530Z,15.60
2018-06-18T21:12:51.534Z,15.50
2018-06-18T21:15:19.748Z,15.40
2018-06-18T21:17:47.927Z,15.30
2018-06-18T21:20:16.109Z,15.30
2018-06-18T21:22:44.313Z,15.30
2018-06-18T21:30:08.580Z,15.10
2018-06-18T21:32:36.729Z,15.10
2018-06-18T21:35:04.882Z,15.00
